sensor_id;sensor_type;location;lat;lon;timestamp;P1;durP1;ratioP1;P2;durP2;ratioP2
48534;SDS011;34323;52.022;5.686;2022-09-30T00:02:11;12.05;;;7.05;;
48534;SDS011;34323;52.022;5.686;2022-09-30T00:04:38;10.23;;;6.13;;
48534;SDS011;34323;52.022;5.686;2022-09-30T00:07:04;10.68;;;6.32;;
48534;SDS011;34323;52.022;5.686;2022-09-30T00:09:29;10.07;;;6.15;;
48534;SDS011;34323;52.022;5.686;2022-09-30T00:11:55;11.43;;;6.68;;
48534;SDS011;34323;52.022;5.686;2022-09-30T00:14:21;11.35;;;6.10;;
48534;SDS011;34323;52.022;5.686;2022-09-30T00:16:47;9.48;;;5.95;;
48534;SDS011;34323;52.022;5.686;2022-09-30T00:19:14;13.55;;;6.38;;
48534;SDS011;34323;52.022;5.686;2022-09-30T00:21:39;11.63;;;6.75;;
48534;SDS011;34323;52.022;5.686;2022-09-30T00:24:05;18.45;;;6.10;;
48534;SDS011;34323;52.022;5.686;2022-09-30T00:26:32;17.42;;;7.13;;
48534;SDS011;34323;52.022;5.686;2022-09-30T00:28:58;12.63;;;7.10;;
48534;SDS011;34323;52.022;5.686;2022-09-30T00:31:26;10.23;;;6.82;;
48534;SDS011;34323;52.022;5.686;2022-09-30T00:33:53;17.58;;;7.38;;
48534;SDS011;34323;52.022;5.686;2022-09-30T00:36:35;12.15;;;7.40;;
48534;SDS011;34323;52.022;5.686;2022-09-30T00:39:07;12.65;;;7.40;;
48534;SDS011;34323;52.022;5.686;2022-09-30T00:41:34;9.63;;;6.43;;
48534;SDS011;34323;52.022;5.686;2022-09-30T00:44:01;12.80;;;8.07;;
48534;SDS011;34323;52.022;5.686;2022-09-30T00:46:47;11.27;;;7.20;;
48534;SDS011;34323;52.022;5.686;2022-09-30T00:49:15;11.75;;;7.50;;
48534;SDS011;34323;52.022;5.686;2022-09-30T00:51:46;12.07;;;7.28;;
48534;SDS011;34323;52.022;5.686;2022-09-30T00:54:17;15.55;;;8.13;;
48534;SDS011;34323;52.022;5.686;2022-09-30T00:57:01;11.80;;;7.90;;
48534;SDS011;34323;52.022;5.686;2022-09-30T00:59:36;11.48;;;7.68;;
48534;SDS011;34323;52.022;5.686;2022-09-30T01:02:05;10.20;;;7.20;;
48534;SDS011;34323;52.022;5.686;2022-09-30T01:04:32;16.17;;;8.10;;
48534;SDS011;34323;52.022;5.686;2022-09-30T01:07:00;12.05;;;7.45;;
48534;SDS011;34323;52.022;5.686;2022-09-30T01:09:27;12.25;;;7.40;;
48534;SDS011;34323;52.022;5.686;2022-09-30T01:11:55;14.90;;;7.57;;
48534;SDS011;34323;52.022;5.686;2022-09-30T01:14:22;10.80;;;7.72;;
48534;SDS011;34323;52.022;5.686;2022-09-30T01:17:27;8.77;;;6.22;;
48534;SDS011;34323;52.022;5.686;2022-09-30T01:20:17;9.02;;;6.30;;
48534;SDS011;34323;52.022;5.686;2022-09-30T01:37:18;9.27;;;6.25;;
48534;SDS011;34323;52.022;5.686;2022-09-30T01:42:37;10.43;;;7.15;;
48534;SDS011;34323;52.022;5.686;2022-09-30T01:45:17;11.98;;;7.68;;
48534;SDS011;34323;52.022;5.686;2022-09-30T01:50:33;12.88;;;7.20;;
48534;SDS011;34323;52.022;5.686;2022-09-30T01:56:20;15.30;;;8.32;;
48534;SDS011;34323;52.022;5.686;2022-09-30T01:59:07;9.77;;;6.97;;
48534;SDS011;34323;52.022;5.686;2022-09-30T02:01:38;13.73;;;7.72;;
48534;SDS011;34323;52.022;5.686;2022-09-30T02:04:11;12.52;;;7.78;;
48534;SDS011;34323;52.022;5.686;2022-09-30T02:09:13;13.52;;;8.38;;
48534;SDS011;34323;52.022;5.686;2022-09-30T02:11:50;13.05;;;7.30;;
48534;SDS011;34323;52.022;5.686;2022-09-30T02:14:25;12.35;;;8.35;;
48534;SDS011;34323;52.022;5.686;2022-09-30T02:17:00;12.10;;;8.30;;
48534;SDS011;34323;52.022;5.686;2022-09-30T02:19:36;14.98;;;8.55;;
48534;SDS011;34323;52.022;5.686;2022-09-30T02:22:06;14.40;;;8.40;;
48534;SDS011;34323;52.022;5.686;2022-09-30T02:24:38;7.97;;;5.60;;
48534;SDS011;34323;52.022;5.686;2022-09-30T02:27:08;11.43;;;7.45;;
48534;SDS011;34323;52.022;5.686;2022-09-30T02:29:42;15.23;;;9.25;;
48534;SDS011;34323;52.022;5.686;2022-09-30T02:32:21;12.68;;;8.70;;
48534;SDS011;34323;52.022;5.686;2022-09-30T02:34:55;11.65;;;8.45;;
48534;SDS011;34323;52.022;5.686;2022-09-30T02:37:32;11.85;;;8.32;;
48534;SDS011;34323;52.022;5.686;2022-09-30T02:40:15;18.95;;;9.10;;
48534;SDS011;34323;52.022;5.686;2022-09-30T02:42:50;12.57;;;8.43;;
48534;SDS011;34323;52.022;5.686;2022-09-30T02:45:17;14.32;;;8.45;;
48534;SDS011;34323;52.022;5.686;2022-09-30T02:48:10;14.27;;;8.65;;
48534;SDS011;34323;52.022;5.686;2022-09-30T02:50:46;15.23;;;8.95;;
48534;SDS011;34323;52.022;5.686;2022-09-30T02:53:26;13.48;;;9.27;;
48534;SDS011;34323;52.022;5.686;2022-09-30T02:59:08;12.43;;;8.55;;
48534;SDS011;34323;52.022;5.686;2022-09-30T03:01:34;12.40;;;8.82;;
48534;SDS011;34323;52.022;5.686;2022-09-30T03:04:05;12.68;;;8.27;;
48534;SDS011;34323;52.022;5.686;2022-09-30T03:06:34;12.85;;;9.68;;
48534;SDS011;34323;52.022;5.686;2022-09-30T03:09:00;13.85;;;9.45;;
48534;SDS011;34323;52.022;5.686;2022-09-30T03:11:27;13.25;;;8.38;;
48534;SDS011;34323;52.022;5.686;2022-09-30T03:17:04;13.65;;;8.18;;
48534;SDS011;34323;52.022;5.686;2022-09-30T03:22:29;16.05;;;9.13;;
48534;SDS011;34323;52.022;5.686;2022-09-30T03:25:14;12.07;;;9.05;;
48534;SDS011;34323;52.022;5.686;2022-09-30T03:27:55;18.08;;;8.57;;
48534;SDS011;34323;52.022;5.686;2022-09-30T03:30:27;11.55;;;8.57;;
48534;SDS011;34323;52.022;5.686;2022-09-30T03:33:05;10.00;;;7.82;;
48534;SDS011;34323;52.022;5.686;2022-09-30T03:38:28;15.05;;;9.05;;
48534;SDS011;34323;52.022;5.686;2022-09-30T03:41:05;13.30;;;8.25;;
48534;SDS011;34323;52.022;5.686;2022-09-30T03:43:46;17.27;;;8.35;;
48534;SDS011;34323;52.022;5.686;2022-09-30T03:46:23;13.50;;;7.78;;
48534;SDS011;34323;52.022;5.686;2022-09-30T03:49:03;16.73;;;9.47;;
48534;SDS011;34323;52.022;5.686;2022-09-30T03:51:34;19.83;;;9.63;;
48534;SDS011;34323;52.022;5.686;2022-09-30T03:54:05;11.43;;;8.38;;
48534;SDS011;34323;52.022;5.686;2022-09-30T03:56:35;12.27;;;8.18;;
48534;SDS011;34323;52.022;5.686;2022-09-30T03:59:07;12.63;;;8.13;;
48534;SDS011;34323;52.022;5.686;2022-09-30T04:01:41;11.70;;;8.27;;
48534;SDS011;34323;52.022;5.686;2022-09-30T04:04:06;10.80;;;7.43;;
48534;SDS011;34323;52.022;5.686;2022-09-30T04:06:32;12.13;;;7.97;;
48534;SDS011;34323;52.022;5.686;2022-09-30T04:08:58;11.27;;;7.63;;
48534;SDS011;34323;52.022;5.686;2022-09-30T04:11:24;11.23;;;7.43;;
48534;SDS011;34323;52.022;5.686;2022-09-30T04:13:49;13.68;;;8.13;;
48534;SDS011;34323;52.022;5.686;2022-09-30T04:16:15;18.00;;;8.65;;
48534;SDS011;34323;52.022;5.686;2022-09-30T04:18:40;12.75;;;7.80;;
48534;SDS011;34323;52.022;5.686;2022-09-30T04:21:06;11.77;;;6.88;;
48534;SDS011;34323;52.022;5.686;2022-09-30T04:23:34;11.40;;;7.18;;
48534;SDS011;34323;52.022;5.686;2022-09-30T04:26:00;11.85;;;8.15;;
48534;SDS011;34323;52.022;5.686;2022-09-30T04:28:26;28.40;;;7.93;;
48534;SDS011;34323;52.022;5.686;2022-09-30T04:30:52;12.85;;;7.93;;
48534;SDS011;34323;52.022;5.686;2022-09-30T04:33:17;12.52;;;7.97;;
48534;SDS011;34323;52.022;5.686;2022-09-30T04:35:43;12.55;;;7.93;;
48534;SDS011;34323;52.022;5.686;2022-09-30T04:38:08;12.93;;;7.72;;
48534;SDS011;34323;52.022;5.686;2022-09-30T04:40:37;12.50;;;7.47;;
48534;SDS011;34323;52.022;5.686;2022-09-30T04:43:04;13.63;;;8.07;;
48534;SDS011;34323;52.022;5.686;2022-09-30T04:45:29;19.58;;;7.25;;
48534;SDS011;34323;52.022;5.686;2022-09-30T04:47:55;13.18;;;7.35;;
48534;SDS011;34323;52.022;5.686;2022-09-30T04:50:21;11.65;;;7.65;;
48534;SDS011;34323;52.022;5.686;2022-09-30T04:52:46;14.15;;;7.90;;
48534;SDS011;34323;52.022;5.686;2022-09-30T04:55:12;12.15;;;8.13;;
48534;SDS011;34323;52.022;5.686;2022-09-30T04:57:38;10.70;;;7.38;;
48534;SDS011;34323;52.022;5.686;2022-09-30T05:00:04;14.75;;;8.20;;
48534;SDS011;34323;52.022;5.686;2022-09-30T05:02:33;10.05;;;7.22;;
48534;SDS011;34323;52.022;5.686;2022-09-30T05:04:58;15.88;;;6.90;;
48534;SDS011;34323;52.022;5.686;2022-09-30T05:07:24;15.00;;;8.27;;
48534;SDS011;34323;52.022;5.686;2022-09-30T05:09:50;12.45;;;7.03;;
48534;SDS011;34323;52.022;5.686;2022-09-30T05:12:17;12.68;;;7.97;;
48534;SDS011;34323;52.022;5.686;2022-09-30T05:14:43;15.00;;;7.93;;
48534;SDS011;34323;52.022;5.686;2022-09-30T05:17:08;11.30;;;7.70;;
48534;SDS011;34323;52.022;5.686;2022-09-30T05:19:34;12.18;;;7.75;;
48534;SDS011;34323;52.022;5.686;2022-09-30T05:22:00;13.18;;;7.18;;
48534;SDS011;34323;52.022;5.686;2022-09-30T05:24:25;16.92;;;8.20;;
48534;SDS011;34323;52.022;5.686;2022-09-30T05:26:51;14.13;;;8.00;;
48534;SDS011;34323;52.022;5.686;2022-09-30T05:29:16;12.15;;;8.10;;
48534;SDS011;34323;52.022;5.686;2022-09-30T05:31:42;12.48;;;7.53;;
48534;SDS011;34323;52.022;5.686;2022-09-30T05:34:07;14.20;;;8.13;;
48534;SDS011;34323;52.022;5.686;2022-09-30T05:36:33;13.90;;;7.85;;
48534;SDS011;34323;52.022;5.686;2022-09-30T05:38:59;12.90;;;8.35;;
48534;SDS011;34323;52.022;5.686;2022-09-30T05:41:24;13.25;;;7.65;;
48534;SDS011;34323;52.022;5.686;2022-09-30T05:43:50;14.82;;;7.88;;
48534;SDS011;34323;52.022;5.686;2022-09-30T05:46:16;13.38;;;7.55;;
48534;SDS011;34323;52.022;5.686;2022-09-30T05:48:43;12.73;;;6.97;;
48534;SDS011;34323;52.022;5.686;2022-09-30T05:51:09;11.75;;;6.78;;
48534;SDS011;34323;52.022;5.686;2022-09-30T05:53:36;10.85;;;7.20;;
48534;SDS011;34323;52.022;5.686;2022-09-30T05:56:03;12.43;;;7.30;;
48534;SDS011;34323;52.022;5.686;2022-09-30T05:58:29;13.88;;;7.85;;
48534;SDS011;34323;52.022;5.686;2022-09-30T06:00:55;10.07;;;6.75;;
48534;SDS011;34323;52.022;5.686;2022-09-30T06:03:21;13.82;;;7.80;;
48534;SDS011;34323;52.022;5.686;2022-09-30T06:05:47;12.38;;;7.25;;
48534;SDS011;34323;52.022;5.686;2022-09-30T06:08:19;11.48;;;7.50;;
48534;SDS011;34323;52.022;5.686;2022-09-30T06:10:44;11.40;;;7.50;;
48534;SDS011;34323;52.022;5.686;2022-09-30T06:13:10;15.05;;;7.13;;
48534;SDS011;34323;52.022;5.686;2022-09-30T06:15:36;13.18;;;7.82;;
48534;SDS011;34323;52.022;5.686;2022-09-30T06:18:03;13.00;;;7.18;;
48534;SDS011;34323;52.022;5.686;2022-09-30T06:20:29;10.45;;;6.95;;
48534;SDS011;34323;52.022;5.686;2022-09-30T06:22:57;15.02;;;7.47;;
48534;SDS011;34323;52.022;5.686;2022-09-30T06:25:23;12.32;;;7.18;;
48534;SDS011;34323;52.022;5.686;2022-09-30T06:27:49;18.08;;;7.60;;
48534;SDS011;34323;52.022;5.686;2022-09-30T06:30:14;11.77;;;7.03;;
48534;SDS011;34323;52.022;5.686;2022-09-30T06:32:40;11.82;;;7.32;;
48534;SDS011;34323;52.022;5.686;2022-09-30T06:35:06;13.90;;;7.28;;
48534;SDS011;34323;52.022;5.686;2022-09-30T06:37:32;11.30;;;6.90;;
48534;SDS011;34323;52.022;5.686;2022-09-30T06:40:01;10.73;;;7.00;;
48534;SDS011;34323;52.022;5.686;2022-09-30T06:42:28;14.68;;;7.80;;
48534;SDS011;34323;52.022;5.686;2022-09-30T06:44:53;15.27;;;7.13;;
48534;SDS011;34323;52.022;5.686;2022-09-30T06:47:19;16.13;;;8.65;;
48534;SDS011;34323;52.022;5.686;2022-09-30T06:49:45;15.38;;;8.07;;
48534;SDS011;34323;52.022;5.686;2022-09-30T06:52:11;12.68;;;7.80;;
48534;SDS011;34323;52.022;5.686;2022-09-30T06:54:37;12.52;;;7.72;;
48534;SDS011;34323;52.022;5.686;2022-09-30T06:57:06;12.00;;;7.78;;
48534;SDS011;34323;52.022;5.686;2022-09-30T06:59:32;15.35;;;8.77;;
48534;SDS011;34323;52.022;5.686;2022-09-30T07:01:57;15.70;;;7.82;;
48534;SDS011;34323;52.022;5.686;2022-09-30T07:04:23;14.32;;;8.23;;
48534;SDS011;34323;52.022;5.686;2022-09-30T07:06:49;14.77;;;8.23;;
48534;SDS011;34323;52.022;5.686;2022-09-30T07:09:14;16.73;;;9.15;;
48534;SDS011;34323;52.022;5.686;2022-09-30T07:11:40;13.57;;;8.32;;
48534;SDS011;34323;52.022;5.686;2022-09-30T07:14:06;14.95;;;8.80;;
48534;SDS011;34323;52.022;5.686;2022-09-30T07:16:33;13.82;;;8.73;;
48534;SDS011;34323;52.022;5.686;2022-09-30T07:19:02;14.77;;;9.20;;
48534;SDS011;34323;52.022;5.686;2022-09-30T07:21:28;21.48;;;9.05;;
48534;SDS011;34323;52.022;5.686;2022-09-30T07:23:55;14.48;;;8.60;;
48534;SDS011;34323;52.022;5.686;2022-09-30T07:26:24;15.63;;;9.18;;
48534;SDS011;34323;52.022;5.686;2022-09-30T07:28:50;14.00;;;9.15;;
48534;SDS011;34323;52.022;5.686;2022-09-30T07:31:17;15.50;;;10.48;;
48534;SDS011;34323;52.022;5.686;2022-09-30T07:33:45;14.65;;;9.15;;
48534;SDS011;34323;52.022;5.686;2022-09-30T07:36:11;19.98;;;12.07;;
48534;SDS011;34323;52.022;5.686;2022-09-30T07:38:43;18.77;;;11.27;;
48534;SDS011;34323;52.022;5.686;2022-09-30T07:41:17;23.08;;;12.60;;
48534;SDS011;34323;52.022;5.686;2022-09-30T07:43:46;19.92;;;12.07;;
48534;SDS011;34323;52.022;5.686;2022-09-30T07:46:19;29.30;;;15.38;;
48534;SDS011;34323;52.022;5.686;2022-09-30T07:48:51;21.27;;;12.55;;
48534;SDS011;34323;52.022;5.686;2022-09-30T07:53:58;25.63;;;16.08;;
48534;SDS011;34323;52.022;5.686;2022-09-30T07:56:26;26.42;;;17.30;;
48534;SDS011;34323;52.022;5.686;2022-09-30T07:58:56;24.60;;;15.55;;
48534;SDS011;34323;52.022;5.686;2022-09-30T08:01:27;34.88;;;20.23;;
48534;SDS011;34323;52.022;5.686;2022-09-30T08:03:56;32.03;;;20.90;;
48534;SDS011;34323;52.022;5.686;2022-09-30T08:06:24;36.78;;;21.45;;
48534;SDS011;34323;52.022;5.686;2022-09-30T08:08:52;41.05;;;24.80;;
48534;SDS011;34323;52.022;5.686;2022-09-30T08:11:19;36.45;;;22.70;;
48534;SDS011;34323;52.022;5.686;2022-09-30T08:13:52;35.60;;;22.40;;
48534;SDS011;34323;52.022;5.686;2022-09-30T08:16:19;39.83;;;22.80;;
48534;SDS011;34323;52.022;5.686;2022-09-30T08:18:45;40.60;;;23.77;;
48534;SDS011;34323;52.022;5.686;2022-09-30T08:21:11;41.45;;;23.73;;
48534;SDS011;34323;52.022;5.686;2022-09-30T08:23:36;42.10;;;24.88;;
48534;SDS011;34323;52.022;5.686;2022-09-30T08:26:09;36.90;;;24.75;;
48534;SDS011;34323;52.022;5.686;2022-09-30T08:28:36;40.63;;;23.23;;
48534;SDS011;34323;52.022;5.686;2022-09-30T08:33:29;36.00;;;23.10;;
48534;SDS011;34323;52.022;5.686;2022-09-30T08:35:56;36.05;;;23.98;;
48534;SDS011;34323;52.022;5.686;2022-09-30T08:38:25;37.63;;;23.67;;
48534;SDS011;34323;52.022;5.686;2022-09-30T08:52:48;35.72;;;22.95;;
48534;SDS011;34323;52.022;5.686;2022-09-30T08:55:20;32.85;;;22.33;;
48534;SDS011;34323;52.022;5.686;2022-09-30T08:57:49;30.08;;;20.95;;
48534;SDS011;34323;52.022;5.686;2022-09-30T09:00:17;30.60;;;19.35;;
48534;SDS011;34323;52.022;5.686;2022-09-30T09:02:48;26.48;;;18.85;;
48534;SDS011;34323;52.022;5.686;2022-09-30T09:05:29;26.55;;;19.42;;
48534;SDS011;34323;52.022;5.686;2022-09-30T09:13:38;27.13;;;18.77;;
48534;SDS011;34323;52.022;5.686;2022-09-30T09:24:19;18.58;;;14.10;;
48534;SDS011;34323;52.022;5.686;2022-09-30T09:26:52;19.27;;;13.77;;
48534;SDS011;34323;52.022;5.686;2022-09-30T09:29:24;20.00;;;14.38;;
48534;SDS011;34323;52.022;5.686;2022-09-30T09:31:53;19.83;;;13.40;;
48534;SDS011;34323;52.022;5.686;2022-09-30T09:34:22;16.73;;;12.23;;
48534;SDS011;34323;52.022;5.686;2022-09-30T09:36:55;20.17;;;12.10;;
48534;SDS011;34323;52.022;5.686;2022-09-30T09:42:00;17.80;;;11.77;;
48534;SDS011;34323;52.022;5.686;2022-09-30T09:44:53;15.82;;;11.43;;
48534;SDS011;34323;52.022;5.686;2022-09-30T09:47:36;14.38;;;10.65;;
48534;SDS011;34323;52.022;5.686;2022-09-30T09:50:02;14.85;;;10.43;;
48534;SDS011;34323;52.022;5.686;2022-09-30T09:55:27;13.73;;;10.70;;
48534;SDS011;34323;52.022;5.686;2022-09-30T09:58:06;15.65;;;10.32;;
48534;SDS011;34323;52.022;5.686;2022-09-30T10:00:38;15.80;;;11.57;;
48534;SDS011;34323;52.022;5.686;2022-09-30T10:03:13;13.68;;;9.90;;
48534;SDS011;34323;52.022;5.686;2022-09-30T10:08:26;11.68;;;9.55;;
48534;SDS011;34323;52.022;5.686;2022-09-30T10:10:57;12.05;;;8.02;;
48534;SDS011;34323;52.022;5.686;2022-09-30T10:13:26;11.05;;;7.88;;
48534;SDS011;34323;52.022;5.686;2022-09-30T10:15:57;10.68;;;7.85;;
48534;SDS011;34323;52.022;5.686;2022-09-30T10:18:26;9.48;;;7.00;;
48534;SDS011;34323;52.022;5.686;2022-09-30T10:21:04;11.05;;;6.45;;
48534;SDS011;34323;52.022;5.686;2022-09-30T10:23:42;10.18;;;6.88;;
48534;SDS011;34323;52.022;5.686;2022-09-30T10:26:16;10.05;;;7.45;;
48534;SDS011;34323;52.022;5.686;2022-09-30T10:28:46;8.25;;;6.57;;
48534;SDS011;34323;52.022;5.686;2022-09-30T10:31:36;7.80;;;5.88;;
48534;SDS011;34323;52.022;5.686;2022-09-30T10:36:52;7.65;;;5.45;;
48534;SDS011;34323;52.022;5.686;2022-09-30T10:39:27;7.32;;;4.90;;
48534;SDS011;34323;52.022;5.686;2022-09-30T10:44:25;11.68;;;5.82;;
48534;SDS011;34323;52.022;5.686;2022-09-30T10:46:52;8.68;;;5.47;;
48534;SDS011;34323;52.022;5.686;2022-09-30T10:52:01;5.95;;;4.70;;
48534;SDS011;34323;52.022;5.686;2022-09-30T10:57:22;8.43;;;4.03;;
48534;SDS011;34323;52.022;5.686;2022-09-30T10:59:51;5.80;;;3.88;;
48534;SDS011;34323;52.022;5.686;2022-09-30T11:02:33;5.78;;;3.70;;
48534;SDS011;34323;52.022;5.686;2022-09-30T11:05:22;6.72;;;4.03;;
48534;SDS011;34323;52.022;5.686;2022-09-30T11:13:53;6.25;;;3.63;;
48534;SDS011;34323;52.022;5.686;2022-09-30T11:16:33;6.78;;;3.83;;
48534;SDS011;34323;52.022;5.686;2022-09-30T11:27:05;6.28;;;4.07;;
48534;SDS011;34323;52.022;5.686;2022-09-30T11:32:20;14.65;;;5.00;;
48534;SDS011;34323;52.022;5.686;2022-09-30T11:35:12;6.20;;;4.05;;
48534;SDS011;34323;52.022;5.686;2022-09-30T11:38:26;7.32;;;4.68;;
48534;SDS011;34323;52.022;5.686;2022-09-30T11:57:00;6.40;;;4.30;;
48534;SDS011;34323;52.022;5.686;2022-09-30T11:59:37;5.25;;;3.95;;
48534;SDS011;34323;52.022;5.686;2022-09-30T12:02:35;5.00;;;3.35;;
48534;SDS011;34323;52.022;5.686;2022-09-30T12:05:16;5.85;;;3.53;;
48534;SDS011;34323;52.022;5.686;2022-09-30T12:08:08;7.03;;;3.17;;
48534;SDS011;34323;52.022;5.686;2022-09-30T12:13:30;4.22;;;2.95;;
48534;SDS011;34323;52.022;5.686;2022-09-30T12:16:00;3.17;;;2.43;;
48534;SDS011;34323;52.022;5.686;2022-09-30T12:18:33;3.78;;;2.58;;
48534;SDS011;34323;52.022;5.686;2022-09-30T12:21:16;3.10;;;2.03;;
48534;SDS011;34323;52.022;5.686;2022-09-30T12:27:13;2.90;;;1.90;;
48534;SDS011;34323;52.022;5.686;2022-09-30T12:29:51;4.95;;;2.15;;
48534;SDS011;34323;52.022;5.686;2022-09-30T12:35:29;3.25;;;2.20;;
48534;SDS011;34323;52.022;5.686;2022-09-30T12:41:11;2.53;;;1.77;;
48534;SDS011;34323;52.022;5.686;2022-09-30T12:43:54;4.72;;;2.50;;
48534;SDS011;34323;52.022;5.686;2022-09-30T12:49:23;1.55;;;1.30;;
48534;SDS011;34323;52.022;5.686;2022-09-30T12:51:53;2.22;;;1.60;;
48534;SDS011;34323;52.022;5.686;2022-09-30T12:56:56;4.18;;;1.95;;
48534;SDS011;34323;52.022;5.686;2022-09-30T12:59:32;2.47;;;1.33;;
48534;SDS011;34323;52.022;5.686;2022-09-30T13:02:00;2.60;;;1.80;;
48534;SDS011;34323;52.022;5.686;2022-09-30T13:04:35;1.45;;;1.10;;
48534;SDS011;34323;52.022;5.686;2022-09-30T13:07:09;7.78;;;1.60;;
48534;SDS011;34323;52.022;5.686;2022-09-30T13:09:57;1.48;;;1.02;;
48534;SDS011;34323;52.022;5.686;2022-09-30T13:12:24;2.55;;;1.40;;
48534;SDS011;34323;52.022;5.686;2022-09-30T13:15:20;2.35;;;1.23;;
48534;SDS011;34323;52.022;5.686;2022-09-30T13:17:53;2.70;;;1.27;;
48534;SDS011;34323;52.022;5.686;2022-09-30T13:31:27;2.22;;;1.13;;
48534;SDS011;34323;52.022;5.686;2022-09-30T13:36:39;1.10;;;0.98;;
48534;SDS011;34323;52.022;5.686;2022-09-30T13:49:51;0.70;;;0.70;;
48534;SDS011;34323;52.022;5.686;2022-09-30T13:52:47;1.10;;;1.00;;
48534;SDS011;34323;52.022;5.686;2022-09-30T13:55:26;1.98;;;1.35;;
48534;SDS011;34323;52.022;5.686;2022-09-30T14:00:53;1.60;;;1.00;;
48534;SDS011;34323;52.022;5.686;2022-09-30T14:12:22;2.13;;;1.38;;
48534;SDS011;34323;52.022;5.686;2022-09-30T14:22:48;4.90;;;1.60;;
48534;SDS011;34323;52.022;5.686;2022-09-30T14:25:15;2.58;;;1.58;;
48534;SDS011;34323;52.022;5.686;2022-09-30T14:27:44;2.22;;;1.70;;
48534;SDS011;34323;52.022;5.686;2022-09-30T14:30:39;3.20;;;1.85;;
48534;SDS011;34323;52.022;5.686;2022-09-30T14:33:26;3.03;;;1.80;;
48534;SDS011;34323;52.022;5.686;2022-09-30T14:35:55;2.42;;;1.60;;
48534;SDS011;34323;52.022;5.686;2022-09-30T14:38:26;2.97;;;1.90;;
48534;SDS011;34323;52.022;5.686;2022-09-30T14:40:57;2.47;;;1.75;;
48534;SDS011;34323;52.022;5.686;2022-09-30T14:43:30;4.32;;;1.77;;
48534;SDS011;34323;52.022;5.686;2022-09-30T14:46:45;4.30;;;2.25;;
48534;SDS011;34323;52.022;5.686;2022-09-30T14:48:50;3.33;;;2.00;;
48534;SDS011;34323;52.022;5.686;2022-09-30T14:51:18;4.43;;;1.70;;
48534;SDS011;34323;52.022;5.686;2022-09-30T14:58:51;2.38;;;1.77;;
48534;SDS011;34323;52.022;5.686;2022-09-30T15:01:21;2.78;;;1.88;;
48534;SDS011;34323;52.022;5.686;2022-09-30T15:06:29;2.53;;;1.75;;
48534;SDS011;34323;52.022;5.686;2022-09-30T15:09:03;3.05;;;1.85;;
48534;SDS011;34323;52.022;5.686;2022-09-30T15:11:32;2.63;;;1.63;;
48534;SDS011;34323;52.022;5.686;2022-09-30T15:14:01;3.95;;;1.70;;
48534;SDS011;34323;52.022;5.686;2022-09-30T15:16:30;3.05;;;1.50;;
48534;SDS011;34323;52.022;5.686;2022-09-30T15:18:57;5.20;;;1.98;;
48534;SDS011;34323;52.022;5.686;2022-09-30T15:21:25;2.90;;;1.73;;
48534;SDS011;34323;52.022;5.686;2022-09-30T15:23:55;2.28;;;1.63;;
48534;SDS011;34323;52.022;5.686;2022-09-30T15:26:25;2.38;;;1.65;;
48534;SDS011;34323;52.022;5.686;2022-09-30T15:28:52;1.83;;;1.50;;
48534;SDS011;34323;52.022;5.686;2022-09-30T15:31:20;2.65;;;1.77;;
48534;SDS011;34323;52.022;5.686;2022-09-30T15:34:11;2.85;;;1.83;;
48534;SDS011;34323;52.022;5.686;2022-09-30T15:36:40;4.68;;;1.90;;
48534;SDS011;34323;52.022;5.686;2022-09-30T15:39:15;3.72;;;1.92;;
48534;SDS011;34323;52.022;5.686;2022-09-30T15:41:46;2.92;;;1.67;;
48534;SDS011;34323;52.022;5.686;2022-09-30T15:44:27;3.42;;;1.85;;
48534;SDS011;34323;52.022;5.686;2022-09-30T15:47:03;3.25;;;1.52;;
48534;SDS011;34323;52.022;5.686;2022-09-30T15:54:48;2.40;;;1.80;;
48534;SDS011;34323;52.022;5.686;2022-09-30T16:00:10;11.48;;;1.80;;
48534;SDS011;34323;52.022;5.686;2022-09-30T16:03:46;1.90;;;1.30;;
48534;SDS011;34323;52.022;5.686;2022-09-30T16:06:28;4.50;;;1.45;;
48534;SDS011;34323;52.022;5.686;2022-09-30T16:08:51;1.90;;;1.35;;
48534;SDS011;34323;52.022;5.686;2022-09-30T16:11:30;1.90;;;1.45;;
48534;SDS011;34323;52.022;5.686;2022-09-30T16:14:00;4.50;;;1.50;;
48534;SDS011;34323;52.022;5.686;2022-09-30T16:16:32;2.85;;;1.70;;
48534;SDS011;34323;52.022;5.686;2022-09-30T16:19:00;2.50;;;1.80;;
48534;SDS011;34323;52.022;5.686;2022-09-30T16:21:29;2.67;;;1.65;;
48534;SDS011;34323;52.022;5.686;2022-09-30T16:26:50;4.45;;;1.90;;
48534;SDS011;34323;52.022;5.686;2022-09-30T16:29:19;4.73;;;1.97;;
48534;SDS011;34323;52.022;5.686;2022-09-30T16:31:47;2.28;;;1.38;;
48534;SDS011;34323;52.022;5.686;2022-09-30T16:34:32;3.63;;;1.50;;
48534;SDS011;34323;52.022;5.686;2022-09-30T16:37:03;3.88;;;1.98;;
48534;SDS011;34323;52.022;5.686;2022-09-30T16:39:39;2.53;;;1.58;;
48534;SDS011;34323;52.022;5.686;2022-09-30T16:42:05;2.10;;;1.38;;
48534;SDS011;34323;52.022;5.686;2022-09-30T16:44:35;2.88;;;1.40;;
48534;SDS011;34323;52.022;5.686;2022-09-30T16:47:01;3.60;;;1.80;;
48534;SDS011;34323;52.022;5.686;2022-09-30T16:49:27;3.40;;;1.42;;
48534;SDS011;34323;52.022;5.686;2022-09-30T16:51:53;4.18;;;1.88;;
48534;SDS011;34323;52.022;5.686;2022-09-30T16:54:19;2.10;;;1.50;;
48534;SDS011;34323;52.022;5.686;2022-09-30T16:56:45;3.22;;;2.17;;
48534;SDS011;34323;52.022;5.686;2022-09-30T16:59:11;2.50;;;1.70;;
48534;SDS011;34323;52.022;5.686;2022-09-30T17:01:39;3.90;;;2.00;;
48534;SDS011;34323;52.022;5.686;2022-09-30T17:04:06;3.92;;;2.03;;
48534;SDS011;34323;52.022;5.686;2022-09-30T17:06:32;4.22;;;1.98;;
48534;SDS011;34323;52.022;5.686;2022-09-30T17:08:58;1.50;;;1.17;;
48534;SDS011;34323;52.022;5.686;2022-09-30T17:11:30;7.05;;;1.98;;
48534;SDS011;34323;52.022;5.686;2022-09-30T17:13:58;2.58;;;1.50;;
48534;SDS011;34323;52.022;5.686;2022-09-30T17:16:27;3.28;;;1.67;;
48534;SDS011;34323;52.022;5.686;2022-09-30T17:18:54;2.25;;;1.27;;
48534;SDS011;34323;52.022;5.686;2022-09-30T17:21:21;3.45;;;1.70;;
48534;SDS011;34323;52.022;5.686;2022-09-30T17:23:49;2.00;;;1.40;;
48534;SDS011;34323;52.022;5.686;2022-09-30T17:26:15;2.85;;;1.75;;
48534;SDS011;34323;52.022;5.686;2022-09-30T17:28:41;5.82;;;1.90;;
48534;SDS011;34323;52.022;5.686;2022-09-30T17:31:08;5.93;;;2.60;;
48534;SDS011;34323;52.022;5.686;2022-09-30T17:33:36;3.78;;;2.08;;
48534;SDS011;34323;52.022;5.686;2022-09-30T17:36:04;6.38;;;2.00;;
48534;SDS011;34323;52.022;5.686;2022-09-30T17:38:32;4.75;;;2.72;;
48534;SDS011;34323;52.022;5.686;2022-09-30T17:40:59;2.10;;;1.55;;
48534;SDS011;34323;52.022;5.686;2022-09-30T17:43:43;4.05;;;2.40;;
48534;SDS011;34323;52.022;5.686;2022-09-30T17:46:10;2.75;;;1.80;;
48534;SDS011;34323;52.022;5.686;2022-09-30T17:48:36;2.90;;;2.10;;
48534;SDS011;34323;52.022;5.686;2022-09-30T17:51:03;6.55;;;2.33;;
48534;SDS011;34323;52.022;5.686;2022-09-30T17:53:30;3.00;;;2.00;;
48534;SDS011;34323;52.022;5.686;2022-09-30T17:58:52;6.88;;;3.20;;
48534;SDS011;34323;52.022;5.686;2022-09-30T18:01:19;3.40;;;2.17;;
48534;SDS011;34323;52.022;5.686;2022-09-30T18:03:45;7.82;;;3.22;;
48534;SDS011;34323;52.022;5.686;2022-09-30T18:06:12;3.95;;;2.70;;
48534;SDS011;34323;52.022;5.686;2022-09-30T18:08:40;3.25;;;2.35;;
48534;SDS011;34323;52.022;5.686;2022-09-30T18:11:06;6.88;;;3.00;;
48534;SDS011;34323;52.022;5.686;2022-09-30T18:13:32;6.68;;;3.63;;
48534;SDS011;34323;52.022;5.686;2022-09-30T18:15:58;4.38;;;2.95;;
48534;SDS011;34323;52.022;5.686;2022-09-30T18:18:28;7.65;;;2.75;;
48534;SDS011;34323;52.022;5.686;2022-09-30T18:20:54;3.95;;;2.60;;
48534;SDS011;34323;52.022;5.686;2022-09-30T18:23:20;4.07;;;2.75;;
48534;SDS011;34323;52.022;5.686;2022-09-30T18:25:46;6.28;;;3.00;;